Time;durP1;ratioP1;P1;durP2;ratioP2;P2;SDS_P1;SDS_P2;PMS_P1;PMS_P2;Temp;Humidity;BMP_temperature;BMP_pressure;BME280_temperature;BME280_humidity;BME280_pressure;Samples;Min_cycle;Max_cycle;Signal;HPM_P1;HPM_P2
2022/03/01 00:00:12;;;;;;;;;;;4.50;83.20;;;;;;5066857;28;19912;-68
2022/03/01 00:02:38;;;;;;;;;;;4.50;83.10;;;;;;5067032;28;19966;-68
2022/03/01 00:05:03;;;;;;;;;;;4.50;83.20;;;;;;5083467;28;19920;-68
2022/03/01 00:07:29;;;;;;;;;;;4.50;83.10;;;;;;5085141;28;20265;-68
2022/03/01 00:09:54;;;;;;;;;;;4.50;83.10;;;;;;5084818;28;19943;-68
2022/03/01 00:12:20;;;;;;;;;;;4.40;83.00;;;;;;5086383;28;20033;-68
2022/03/01 00:14:45;;;;;;;;;;;4.40;83.10;;;;;;5085930;28;19944;-68
2022/03/01 00:17:11;;;;;;;;;;;4.40;83.10;;;;;;5066994;28;20452;-68
2022/03/01 00:19:36;;;;;;;;;;;4.40;83.20;;;;;;5070111;28;19961;-68
2022/03/01 00:22:02;;;;;;;;;;;4.40;83.10;;;;;;5064302;28;20588;-68
2022/03/01 00:24:27;;;;;;;;;;;4.40;83.10;;;;;;5069762;28;19915;-69
2022/03/01 00:26:53;;;;;;;;;;;4.40;83.80;;;;;;5081401;28;19920;-68
2022/03/01 00:29:18;;;;;;;;;;;4.30;83.00;;;;;;5087946;28;19931;-68
2022/03/01 00:31:44;;;;;;;;;;;4.30;83.20;;;;;;5081455;28;20250;-68
2022/03/01 00:34:10;;;;;;;;;;;4.30;83.20;;;;;;5087512;28;19916;-68
2022/03/01 00:36:36;;;;;;;;;;;4.30;83.20;;;;;;5082511;28;19912;-68
2022/03/01 00:39:03;;;;;;;;;;;4.30;83.30;;;;;;5086501;28;19917;-68
2022/03/01 00:41:29;;;;;;;;;;;4.30;83.20;;;;;;5083219;28;19923;-68
2022/03/01 00:43:54;;;;;;;;;;;4.30;83.30;;;;;;5069193;28;19912;-68
2022/03/01 00:46:22;;;;;;;;;;;4.30;83.10;;;;;;5081691;28;19915;-68
2022/03/01 00:48:48;;;;;;;;;;;4.30;83.30;;;;;;5086438;28;19916;-68
2022/03/01 00:51:13;;;;;;;;;;;4.20;83.10;;;;;;5065825;28;20277;-68
2022/03/01 00:53:39;;;;;;;;;;;4.20;83.20;;;;;;5067804;28;19914;-68
2022/03/01 00:56:04;;;;;;;;;;;4.20;83.20;;;;;;5083760;28;20030;-68
2022/03/01 00:58:31;;;;;;;;;;;4.20;83.10;;;;;;5065338;28;19948;-68
2022/03/01 01:00:56;;;;;;;;;;;4.20;83.00;;;;;;5082597;28;19923;-68
2022/03/01 01:03:22;;;;;;;;;;;4.20;83.70;;;;;;5079655;28;20496;-68
2022/03/01 01:05:47;;;;;;;;;;;4.20;83.20;;;;;;5086610;28;19924;-68
2022/03/01 01:08:13;;;;;;;;;;;4.20;83.10;;;;;;5082879;28;19961;-68
2022/03/01 01:10:38;;;;;;;;;;;4.20;83.10;;;;;;5068247;28;19938;-68
2022/03/01 01:13:04;;;;;;;;;;;4.20;83.20;;;;;;5083527;28;19942;-68
2022/03/01 01:15:29;;;;;;;;;;;4.10;83.10;;;;;;5085887;28;19930;-68
2022/03/01 01:17:55;;;;;;;;;;;4.10;83.20;;;;;;5081463;28;19916;-68
2022/03/01 01:20:20;;;;;;;;;;;4.10;83.10;;;;;;5066946;28;19923;-68
2022/03/01 01:22:46;;;;;;;;;;;4.10;83.20;;;;;;5083877;28;20022;-68
2022/03/01 01:25:22;;;;;;;;;;;4.10;83.20;;;;;;5068350;28;20018;-68
2022/03/01 01:27:49;;;;;;;;;;;4.10;83.20;;;;;;5082451;28;19916;-68
2022/03/01 01:30:17;;;;;;;;;;;4.10;83.20;;;;;;5085069;28;19916;-68
2022/03/01 01:32:42;;;;;;;;;;;4.10;83.20;;;;;;5085040;28;20030;-69
2022/03/01 01:35:09;;;;;;;;;;;4.10;83.30;;;;;;5087582;28;20167;-68
2022/03/01 01:37:34;;;;;;;;;;;4.10;83.20;;;;;;5088857;28;19920;-68
2022/03/01 01:40:00;;;;;;;;;;;4.00;83.20;;;;;;5068611;28;19920;-68
2022/03/01 01:42:26;;;;;;;;;;;4.00;83.20;;;;;;5088137;28;19912;-68
2022/03/01 01:44:51;;;;;;;;;;;4.00;83.10;;;;;;5086420;28;19916;-68
2022/03/01 01:47:17;;;;;;;;;;;4.00;83.20;;;;;;5086943;28;19912;-68
2022/03/01 01:49:42;;;;;;;;;;;4.00;83.20;;;;;;5085685;28;19923;-68
2022/03/01 01:52:08;;;;;;;;;;;4.00;83.20;;;;;;5089655;28;19928;-68
2022/03/01 01:54:34;;;;;;;;;;;4.00;83.30;;;;;;5085314;28;19912;-68
2022/03/01 01:56:59;;;;;;;;;;;3.90;83.20;;;;;;5069309;28;21310;-68
2022/03/01 01:59:25;;;;;;;;;;;3.90;83.20;;;;;;5069380;28;19927;-68
2022/03/01 02:01:50;;;;;;;;;;;3.90;83.20;;;;;;5070109;28;19964;-68
2022/03/01 02:04:16;;;;;;;;;;;3.90;83.20;;;;;;5085643;28;19923;-68
2022/03/01 02:06:51;;;;;;;;;;;3.90;83.20;;;;;;5088184;28;19916;-68
2022/03/01 02:09:17;;;;;;;;;;;3.90;83.20;;;;;;5085289;28;20367;-68
2022/03/01 02:11:42;;;;;;;;;;;3.90;83.30;;;;;;5070486;28;19913;-68
2022/03/01 02:14:08;;;;;;;;;;;3.90;83.30;;;;;;5068553;28;20322;-68
2022/03/01 02:16:34;;;;;;;;;;;3.90;83.20;;;;;;5086043;28;20373;-68
2022/03/01 02:19:00;;;;;;;;;;;3.90;83.20;;;;;;5087197;28;21591;-68
2022/03/01 02:21:25;;;;;;;;;;;3.90;83.20;;;;;;5084631;28;19912;-68
2022/03/01 02:23:51;;;;;;;;;;;3.90;83.10;;;;;;5088764;28;19912;-68
2022/03/01 02:26:16;;;;;;;;;;;3.80;83.20;;;;;;5085274;28;19920;-68
2022/03/01 02:28:42;;;;;;;;;;;3.80;83.20;;;;;;5089404;28;19952;-68
2022/03/01 02:31:08;;;;;;;;;;;3.90;83.20;;;;;;5085539;28;19916;-68
2022/03/01 02:33:33;;;;;;;;;;;3.80;83.30;;;;;;5071126;28;19908;-68
2022/03/01 02:35:59;;;;;;;;;;;3.90;83.30;;;;;;5085156;28;20520;-68
2022/03/01 02:38:24;;;;;;;;;;;3.80;83.20;;;;;;5089693;28;19908;-68
2022/03/01 02:40:50;;;;;;;;;;;3.80;83.30;;;;;;5068754;28;19916;-68
2022/03/01 02:43:16;;;;;;;;;;;3.80;83.30;;;;;;5070813;28;20456;-68
2022/03/01 02:45:42;;;;;;;;;;;3.80;83.20;;;;;;5083054;28;19969;-68
2022/03/01 02:48:07;;;;;;;;;;;3.80;83.20;;;;;;5089422;28;19916;-68
2022/03/01 02:50:33;;;;;;;;;;;3.80;83.20;;;;;;5086449;28;19916;-68
2022/03/01 02:52:58;;;;;;;;;;;3.80;83.20;;;;;;5086430;28;20254;-68
2022/03/01 02:55:24;;;;;;;;;;;3.80;83.20;;;;;;5085392;28;19948;-68
2022/03/01 02:57:49;;;;;;;;;;;3.80;83.30;;;;;;5086441;28;19922;-68
2022/03/01 03:00:15;;;;;;;;;;;3.80;83.30;;;;;;5067314;28;20069;-68
2022/03/01 03:02:41;;;;;;;;;;;3.80;83.20;;;;;;5084898;28;19916;-68
2022/03/01 03:05:07;;;;;;;;;;;3.80;83.20;;;;;;5070235;28;20749;-68
2022/03/01 03:07:33;;;;;;;;;;;3.80;83.20;;;;;;5084441;28;20380;-68
2022/03/01 03:09:58;;;;;;;;;;;3.80;83.20;;;;;;5085971;28;20043;-68
2022/03/01 03:12:24;;;;;;;;;;;3.80;83.10;;;;;;5067978;28;19955;-68
2022/03/01 03:14:49;;;;;;;;;;;3.80;83.20;;;;;;5086408;28;19927;-68
2022/03/01 03:17:15;;;;;;;;;;;3.80;83.20;;;;;;5067619;28;20391;-68
2022/03/01 03:19:40;;;;;;;;;;;3.80;83.20;;;;;;5086342;28;19916;-68
2022/03/01 03:22:06;;;;;;;;;;;3.80;83.20;;;;;;5085656;28;19919;-68
2022/03/01 03:24:32;;;;;;;;;;;3.80;83.10;;;;;;5071123;28;20047;-68
2022/03/01 03:26:57;;;;;;;;;;;3.80;83.10;;;;;;5070068;28;19915;-68
2022/03/01 03:29:23;;;;;;;;;;;3.80;83.00;;;;;;5085131;28;19913;-68
2022/03/01 03:31:49;;;;;;;;;;;3.80;83.10;;;;;;5086010;28;19927;-68
2022/03/01 03:34:14;;;;;;;;;;;3.80;83.10;;;;;;5083580;28;19978;-68
2022/03/01 03:36:41;;;;;;;;;;;3.80;83.10;;;;;;5086243;28;20304;-68
2022/03/01 03:39:08;;;;;;;;;;;3.80;82.90;;;;;;5084203;28;20019;-68
2022/03/01 03:41:33;;;;;;;;;;;3.80;83.00;;;;;;5087395;28;19916;-68
2022/03/01 03:43:59;;;;;;;;;;;3.80;82.90;;;;;;5085614;28;19958;-68
2022/03/01 03:46:25;;;;;;;;;;;3.80;83.00;;;;;;5085175;28;19999;-68
2022/03/01 03:48:52;;;;;;;;;;;3.80;83.00;;;;;;5084913;28;20492;-67
2022/03/01 03:51:18;;;;;;;;;;;3.90;83.10;;;;;;5069005;28;20662;-67
2022/03/01 03:53:43;;;;;;;;;;;3.90;83.00;;;;;;5066773;28;19912;-67
2022/03/01 03:56:09;;;;;;;;;;;3.90;83.10;;;;;;5087602;28;20301;-67
2022/03/01 03:58:34;;;;;;;;;;;3.90;83.00;;;;;;5083804;28;20010;-67
2022/03/01 04:01:00;;;;;;;;;;;3.80;83.00;;;;;;5085204;28;19956;-68
2022/03/01 04:03:26;;;;;;;;;;;3.80;83.10;;;;;;5088446;28;20007;-67
2022/03/01 04:05:52;;;;;;;;;;;3.80;83.10;;;;;;5083281;28;19965;-67
2022/03/01 04:08:18;;;;;;;;;;;3.80;83.10;;;;;;5088844;28;19916;-67
2022/03/01 04:10:43;;;;;;;;;;;3.90;83.20;;;;;;5083243;28;20001;-67
2022/03/01 04:13:09;;;;;;;;;;;3.90;83.20;;;;;;5086661;28;20416;-67
2022/03/01 04:15:35;;;;;;;;;;;3.80;83.00;;;;;;5084209;28;19912;-68
2022/03/01 04:18:01;;;;;;;;;;;3.80;83.10;;;;;;5087021;28;19912;-67
2022/03/01 04:20:27;;;;;;;;;;;3.80;83.10;;;;;;5065283;28;20412;-68
2022/03/01 04:22:52;;;;;;;;;;;3.80;83.20;;;;;;5087411;28;19908;-67
2022/03/01 04:25:18;;;;;;;;;;;3.80;83.20;;;;;;5083065;28;20396;-67
2022/03/01 04:27:44;;;;;;;;;;;3.80;83.30;;;;;;5086090;28;19919;-67
2022/03/01 04:30:11;;;;;;;;;;;3.80;83.20;;;;;;5081829;28;19934;-67
2022/03/01 04:32:37;;;;;;;;;;;3.80;83.20;;;;;;5086299;28;19915;-67
2022/03/01 04:35:03;;;;;;;;;;;3.80;83.30;;;;;;5065739;28;19930;-67
2022/03/01 04:37:29;;;;;;;;;;;3.80;83.20;;;;;;5087144;28;20007;-67
2022/03/01 04:39:54;;;;;;;;;;;3.80;83.20;;;;;;5068136;28;19998;-67
2022/03/01 04:42:20;;;;;;;;;;;3.80;83.20;;;;;;5084796;28;19943;-68
2022/03/01 04:44:45;;;;;;;;;;;3.80;83.30;;;;;;5085409;28;21136;-67
2022/03/01 04:47:11;;;;;;;;;;;3.80;83.30;;;;;;5082922;28;19919;-67
2022/03/01 04:49:36;;;;;;;;;;;3.80;83.20;;;;;;5082325;28;19916;-67
2022/03/01 04:52:02;;;;;;;;;;;3.80;83.20;;;;;;5084325;28;19916;-67
2022/03/01 04:54:28;;;;;;;;;;;3.80;83.20;;;;;;5085577;28;19912;-67
2022/03/01 04:56:53;;;;;;;;;;;3.80;83.20;;;;;;5083622;28;19966;-67
2022/03/01 04:59:19;;;;;;;;;;;3.80;83.30;;;;;;5084934;28;20349;-67
2022/03/01 05:01:45;;;;;;;;;;;3.80;83.30;;;;;;5066402;28;19920;-67
2022/03/01 05:04:10;;;;;;;;;;;3.80;83.30;;;;;;5086343;28;20365;-67
2022/03/01 05:06:36;;;;;;;;;;;3.80;83.20;;;;;;5083815;28;19918;-67
2022/03/01 05:09:02;;;;;;;;;;;3.80;83.40;;;;;;5088987;28;19922;-67
2022/03/01 05:11:27;;;;;;;;;;;3.80;83.30;;;;;;5086641;28;19926;-67
2022/03/01 05:13:53;;;;;;;;;;;3.80;83.40;;;;;;5055453;28;19915;-67
2022/03/01 05:16:18;;;;;;;;;;;3.80;83.30;;;;;;5091232;28;19916;-67
2022/03/01 05:18:44;;;;;;;;;;;3.80;83.30;;;;;;5088315;28;19916;-67
2022/03/01 05:21:09;;;;;;;;;;;3.80;83.20;;;;;;5070686;28;19916;-67
2022/03/01 05:23:35;;;;;;;;;;;3.80;83.20;;;;;;5086316;28;19920;-67
2022/03/01 05:26:00;;;;;;;;;;;3.80;83.30;;;;;;5089299;28;19912;-67
2022/03/01 05:28:26;;;;;;;;;;;3.80;83.30;;;;;;5086380;28;20026;-67
2022/03/01 05:30:51;;;;;;;;;;;3.80;83.20;;;;;;5088584;28;19912;-67
2022/03/01 05:33:17;;;;;;;;;;;3.80;83.30;;;;;;5070402;28;20437;-67
2022/03/01 05:35:43;;;;;;;;;;;3.80;83.20;;;;;;5090265;28;19934;-67
2022/03/01 05:38:09;;;;;;;;;;;3.80;83.20;;;;;;5086007;28;19939;-67
2022/03/01 05:40:36;;;;;;;;;;;3.80;83.30;;;;;;5089760;28;20569;-67
2022/03/01 05:43:02;;;;;;;;;;;3.80;83.20;;;;;;5087735;28;19973;-67
2022/03/01 05:45:27;;;;;;;;;;;3.80;83.30;;;;;;5087709;28;20018;-67
2022/03/01 05:47:53;;;;;;;;;;;3.80;83.30;;;;;;5068007;28;20351;-67
2022/03/01 05:50:19;;;;;;;;;;;3.80;83.20;;;;;;5071601;28;19962;-67
2022/03/01 05:52:46;;;;;;;;;;;3.80;83.20;;;;;;5070332;28;19924;-67
2022/03/01 05:55:11;;;;;;;;;;;3.80;83.20;;;;;;5069724;28;19912;-67
2022/03/01 05:57:37;;;;;;;;;;;3.80;83.30;;;;;;5090036;28;20027;-68
2022/03/01 06:00:07;;;;;;;;;;;3.80;83.30;;;;;;5085083;28;19912;-67
2022/03/01 06:02:32;;;;;;;;;;;3.80;83.20;;;;;;5089763;28;20360;-68
2022/03/01 06:04:58;;;;;;;;;;;3.80;83.10;;;;;;5087281;28;19936;-68
2022/03/01 06:07:23;;;;;;;;;;;3.80;83.00;;;;;;5072041;28;19950;-68
2022/03/01 06:09:50;;;;;;;;;;;3.80;83.10;;;;;;5087270;28;19912;-68
2022/03/01 06:12:15;;;;;;;;;;;3.80;83.10;;;;;;5090287;28;19962;-68
2022/03/01 06:14:41;;;;;;;;;;;3.80;83.00;;;;;;5086166;28;19935;-67
2022/03/01 06:17:06;;;;;;;;;;;3.80;83.10;;;;;;5071476;28;19939;-67
2022/03/01 06:19:32;;;;;;;;;;;3.80;83.00;;;;;;5085301;28;19916;-67
2022/03/01 06:21:57;;;;;;;;;;;3.80;82.70;;;;;;5090428;28;20715;-67
2022/03/01 06:24:23;;;;;;;;;;;3.80;83.00;;;;;;5083893;28;19916;-68
2022/03/01 06:26:49;;;;;;;;;;;3.80;82.90;;;;;;5089189;28;19912;-68
2022/03/01 06:29:14;;;;;;;;;;;3.90;83.00;;;;;;5084441;28;19920;-67
2022/03/01 06:31:40;;;;;;;;;;;3.80;82.90;;;;;;5071189;28;19916;-68
2022/03/01 06:34:05;;;;;;;;;;;3.90;82.80;;;;;;5067428;28;20105;-67
2022/03/01 06:36:31;;;;;;;;;;;3.80;82.90;;;;;;5086784;28;20358;-67
2022/03/01 06:38:56;;;;;;;;;;;3.80;82.70;;;;;;5086217;28;19934;-68
2022/03/01 06:41:22;;;;;;;;;;;3.90;82.90;;;;;;5087077;28;19916;-68
2022/03/01 06:43:47;;;;;;;;;;;3.90;82.90;;;;;;5085541;28;20346;-67
2022/03/01 06:46:13;;;;;;;;;;;3.90;82.80;;;;;;5065892;28;19912;-68
2022/03/01 06:48:38;;;;;;;;;;;3.90;82.70;;;;;;5087659;28;19920;-68
2022/03/01 06:51:05;;;;;;;;;;;3.90;82.80;;;;;;5086346;28;19912;-67
2022/03/01 06:53:30;;;;;;;;;;;3.90;82.60;;;;;;5086793;28;20369;-68
2022/03/01 06:55:56;;;;;;;;;;;3.90;82.80;;;;;;5086831;28;19919;-68
2022/03/01 06:58:22;;;;;;;;;;;3.90;82.80;;;;;;5086455;28;20384;-68
2022/03/01 07:00:47;;;;;;;;;;;3.90;82.60;;;;;;5086776;28;20381;-68
2022/03/01 07:03:13;;;;;;;;;;;3.90;82.60;;;;;;5087884;28;19999;-67
2022/03/01 07:05:38;;;;;;;;;;;4.00;82.70;;;;;;5085870;28;19912;-67
2022/03/01 07:08:04;;;;;;;;;;;4.00;82.60;;;;;;5087741;28;19916;-67
2022/03/01 07:10:30;;;;;;;;;;;4.00;82.80;;;;;;5069865;28;20638;-67
2022/03/01 07:12:55;;;;;;;;;;;4.00;82.70;;;;;;5064738;28;19922;-70
2022/03/01 07:15:21;;;;;;;;;;;4.00;82.60;;;;;;5086371;28;20067;-68
2022/03/01 07:17:46;;;;;;;;;;;4.00;82.70;;;;;;5068645;28;19930;-68
2022/03/01 07:20:12;;;;;;;;;;;4.00;82.80;;;;;;5069348;28;19919;-68
2022/03/01 07:22:38;;;;;;;;;;;4.00;82.60;;;;;;5084645;28;19920;-68
2022/03/01 07:25:04;;;;;;;;;;;4.00;82.50;;;;;;5086935;28;19952;-68
2022/03/01 07:27:30;;;;;;;;;;;4.00;82.70;;;;;;5067978;28;19920;-68
2022/03/01 07:29:56;;;;;;;;;;;4.10;82.50;;;;;;5069522;28;19940;-67
2022/03/01 07:32:21;;;;;;;;;;;4.10;82.60;;;;;;5067339;28;19920;-68
2022/03/01 07:34:47;;;;;;;;;;;4.10;82.60;;;;;;5087639;28;20281;-67
2022/03/01 07:37:12;;;;;;;;;;;4.10;82.60;;;;;;5084971;28;20452;-67
2022/03/01 07:39:38;;;;;;;;;;;4.10;82.60;;;;;;5087088;28;19955;-67
2022/03/01 07:42:03;;;;;;;;;;;4.10;82.60;;;;;;5085936;28;20000;-68
2022/03/01 07:44:29;;;;;;;;;;;4.10;82.40;;;;;;5086033;28;19908;-67
2022/03/01 07:46:55;;;;;;;;;;;4.10;82.40;;;;;;5086795;28;19912;-67
2022/03/01 07:49:21;;;;;;;;;;;4.10;82.40;;;;;;5082748;28;19915;-68
2022/03/01 07:51:46;;;;;;;;;;;4.10;82.40;;;;;;5069297;28;20288;-68
2022/03/01 07:54:12;;;;;;;;;;;4.20;82.10;;;;;;5083229;28;19928;-67
2022/03/01 07:56:39;;;;;;;;;;;4.20;82.10;;;;;;5086021;28;19912;-67
2022/03/01 07:59:05;;;;;;;;;;;4.20;82.00;;;;;;5082595;28;19912;-68
2022/03/01 08:01:31;;;;;;;;;;;4.20;81.70;;;;;;5088248;28;19912;-68
2022/03/01 08:03:56;;;;;;;;;;;4.20;81.90;;;;;;5065660;28;19964;-68
2022/03/01 08:06:22;;;;;;;;;;;4.30;81.70;;;;;;5069964;28;19912;-67
2022/03/01 08:08:47;;;;;;;;;;;4.30;81.60;;;;;;5084230;28;20471;-68
2022/03/01 08:11:13;;;;;;;;;;;4.30;81.30;;;;;;5068201;28;19912;-68
2022/03/01 08:13:38;;;;;;;;;;;4.30;81.40;;;;;;5083992;28;20289;-68
2022/03/01 08:16:04;;;;;;;;;;;4.40;81.60;;;;;;5088205;28;19908;-68
2022/03/01 08:18:30;;;;;;;;;;;4.40;81.50;;;;;;5083191;28;19912;-68
2022/03/01 08:20:57;;;;;;;;;;;4.40;81.40;;;;;;5087393;28;19912;-68
2022/03/01 08:23:23;;;;;;;;;;;4.50;81.10;;;;;;5086744;28;19916;-68
2022/03/01 08:25:48;;;;;;;;;;;4.50;81.40;;;;;;5084488;28;19920;-68
2022/03/01 08:28:14;;;;;;;;;;;4.50;81.20;;;;;;5083908;28;20549;-68
2022/03/01 08:30:39;;;;;;;;;;;4.60;81.20;;;;;;5067520;28;19916;-68
2022/03/01 08:33:05;;;;;;;;;;;4.60;80.70;;;;;;5084515;28;19926;-68
2022/03/01 08:35:32;;;;;;;;;;;4.70;80.60;;;;;;5083810;28;19938;-68
2022/03/01 08:38:05;;;;;;;;;;;4.70;80.60;;;;;;5069007;28;19918;-68
2022/03/01 08:40:32;;;;;;;;;;;4.80;80.50;;;;;;5082974;28;19920;-68
2022/03/01 08:42:57;;;;;;;;;;;4.80;80.60;;;;;;5085603;28;19927;-68
2022/03/01 08:45:23;;;;;;;;;;;4.80;80.40;;;;;;5086936;28;19912;-68
2022/03/01 08:47:50;;;;;;;;;;;4.90;80.20;;;;;;5088768;28;19916;-68
2022/03/01 08:50:15;;;;;;;;;;;5.00;80.00;;;;;;5089934;28;19916;-68
2022/03/01 08:52:41;;;;;;;;;;;5.00;80.00;;;;;;5089927;28;20025;-68
2022/03/01 08:55:07;;;;;;;;;;;5.10;79.80;;;;;;5087031;28;20054;-68
2022/03/01 08:57:33;;;;;;;;;;;5.10;79.90;;;;;;5070149;28;19935;-68
2022/03/01 08:59:59;;;;;;;;;;;5.10;79.90;;;;;;5088622;28;20627;-68
2022/03/01 09:02:24;;;;;;;;;;;5.20;79.70;;;;;;5073960;28;19927;-68
2022/03/01 09:04:50;;;;;;;;;;;5.20;79.60;;;;;;5087947;28;20424;-68
2022/03/01 09:07:15;;;;;;;;;;;5.30;79.60;;;;;;5069995;28;19916;-68
2022/03/01 09:09:41;;;;;;;;;;;5.30;79.60;;;;;;5054529;28;19908;-68
2022/03/01 09:12:07;;;;;;;;;;;5.40;79.50;;;;;;5068594;28;20010;-68
2022/03/01 09:14:32;;;;;;;;;;;5.40;79.30;;;;;;5067175;28;19916;-68
2022/03/01 09:16:58;;;;;;;;;;;5.40;78.90;;;;;;5069035;28;20006;-68
2022/03/01 09:19:23;;;;;;;;;;;5.50;78.70;;;;;;5088819;28;20382;-68
2022/03/01 09:21:49;;;;;;;;;;;5.60;78.20;;;;;;5087928;28;19912;-68
2022/03/01 09:24:14;;;;;;;;;;;5.60;78.70;;;;;;5088939;28;19908;-68
2022/03/01 09:26:40;;;;;;;;;;;5.60;78.30;;;;;;5089809;28;19915;-68
2022/03/01 09:29:05;;;;;;;;;;;5.70;78.30;;;;;;5089369;28;19912;-68
2022/03/01 09:31:31;;;;;;;;;;;5.70;78.20;;;;;;5087937;28;20376;-68
2022/03/01 09:33:57;;;;;;;;;;;5.80;78.20;;;;;;5089746;28;20316;-68
2022/03/01 09:36:22;;;;;;;;;;;5.80;78.00;;;;;;5070529;28;21321;-68
2022/03/01 09:38:48;;;;;;;;;;;5.80;77.60;;;;;;5087412;28;19920;-68
2022/03/01 09:41:13;;;;;;;;;;;5.90;78.20;;;;;;5089259;28;19919;-68
2022/03/01 09:43:40;;;;;;;;;;;5.90;77.70;;;;;;5068248;28;19930;-68
2022/03/01 09:46:06;;;;;;;;;;;5.90;77.80;;;;;;5089032;28;20003;-68
2022/03/01 09:48:31;;;;;;;;;;;5.90;77.40;;;;;;5086983;28;19916;-68
2022/03/01 09:50:58;;;;;;;;;;;5.90;77.60;;;;;;5090029;28;19912;-68
2022/03/01 09:53:24;;;;;;;;;;;6.00;77.80;;;;;;5086148;28;19916;-68
2022/03/01 09:55:51;;;;;;;;;;;6.00;77.70;;;;;;5072023;28;19912;-68
2022/03/01 09:58:17;;;;;;;;;;;6.00;77.60;;;;;;5086516;28;19916;-68
2022/03/01 10:00:45;;;;;;;;;;;6.00;77.60;;;;;;5090004;28;20274;-68
2022/03/01 10:03:13;;;;;;;;;;;6.00;77.40;;;;;;5085669;28;19916;-68
2022/03/01 10:05:40;;;;;;;;;;;6.00;77.60;;;;;;5089174;28;19916;-68
2022/03/01 10:08:13;;;;;;;;;;;6.10;77.80;;;;;;5087026;28;19920;-68
2022/03/01 10:10:40;;;;;;;;;;;6.10;78.00;;;;;;5089279;28;19912;-68
2022/03/01 10:13:05;;;;;;;;;;;6.10;77.80;;;;;;5085687;28;19924;-68
2022/03/01 10:15:32;;;;;;;;;;;6.20;77.50;;;;;;5069834;28;19912;-68
2022/03/01 10:17:58;;;;;;;;;;;6.20;77.70;;;;;;5086018;28;20285;-68
2022/03/01 10:20:24;;;;;;;;;;;6.30;76.80;;;;;;5088887;28;19920;-68
2022/03/01 10:22:54;;;;;;;;;;;6.40;76.50;;;;;;5085774;28;20544;-68
2022/03/01 10:25:20;;;;;;;;;;;6.40;76.60;;;;;;5069199;28;19938;-68
2022/03/01 10:27:47;;;;;;;;;;;6.50;76.50;;;;;;5087172;28;19923;-68
2022/03/01 10:30:21;;;;;;;;;;;6.60;76.20;;;;;;5087116;28;19916;-68
2022/03/01 10:32:47;;;;;;;;;;;6.60;76.20;;;;;;5069734;28;19919;-68
2022/03/01 10:35:12;;;;;;;;;;;6.60;76.00;;;;;;5087138;28;19916;-68
2022/03/01 10:37:39;;;;;;;;;;;6.70;75.80;;;;;;5086211;28;19920;-68
2022/03/01 10:40:10;;;;;;;;;;;6.70;75.80;;;;;;5085258;28;20411;-68
2022/03/01 10:42:36;;;;;;;;;;;6.70;75.40;;;;;;5087508;28;20381;-68
2022/03/01 10:45:01;;;;;;;;;;;6.80;75.50;;;;;;5085219;28;19922;-70
2022/03/01 10:47:28;;;;;;;;;;;6.80;74.60;;;;;;5087409;28;19920;-68
2022/03/01 10:50:04;;;;;;;;;;;6.80;75.60;;;;;;5086700;28;19912;-69
2022/03/01 10:52:37;;;;;;;;;;;6.90;75.90;;;;;;5084303;28;19923;-68
2022/03/01 10:55:03;;;;;;;;;;;6.90;76.00;;;;;;5067096;28;19955;-68
2022/03/01 10:57:29;;;;;;;;;;;6.90;76.00;;;;;;5085174;28;19916;-68
2022/03/01 10:59:54;;;;;;;;;;;6.90;74.70;;;;;;5087016;28;19920;-68
2022/03/01 11:02:20;;;;;;;;;;;7.00;76.00;;;;;;5086994;28;20339;-68
2022/03/01 11:04:46;;;;;;;;;;;7.00;75.60;;;;;;5088114;28;19952;-68
2022/03/01 11:07:13;;;;;;;;;;;7.10;75.50;;;;;;5067666;28;19916;-68
2022/03/01 11:09:39;;;;;;;;;;;7.10;75.60;;;;;;5088247;28;19923;-68
2022/03/01 11:12:06;;;;;;;;;;;7.20;75.80;;;;;;5084704;28;19920;-68
2022/03/01 11:14:56;;;;;;;;;;;7.20;75.30;;;;;;5070963;28;19923;-68
2022/03/01 11:17:40;;;;;;;;;;;7.30;75.80;;;;;;5083627;28;19941;-68
2022/03/01 11:20:14;;;;;;;;;;;7.40;74.30;;;;;;5088699;28;19916;-68
2022/03/01 11:22:41;;;;;;;;;;;7.50;74.90;;;;;;5083813;28;19940;-68
2022/03/01 11:25:07;;;;;;;;;;;7.60;74.90;;;;;;5088900;28;19912;-68
2022/03/01 11:27:41;;;;;;;;;;;7.60;74.50;;;;;;5082892;28;20284;-68
2022/03/01 11:30:08;;;;;;;;;;;7.60;74.90;;;;;;5067272;28;19912;-69
2022/03/01 11:32:42;;;;;;;;;;;7.70;75.00;;;;;;5084151;28;19924;-68
2022/03/01 11:35:14;;;;;;;;;;;7.70;74.70;;;;;;5087400;28;19912;-68
2022/03/01 11:37:42;;;;;;;;;;;7.80;74.90;;;;;;5084449;28;20322;-69
2022/03/01 11:40:08;;;;;;;;;;;7.80;75.10;;;;;;5069260;28;20548;-68
2022/03/01 11:42:34;;;;;;;;;;;7.80;75.00;;;;;;5067387;28;19920;-68
2022/03/01 11:45:07;;;;;;;;;;;7.80;74.70;;;;;;5086683;28;19908;-69
2022/03/01 11:47:34;;;;;;;;;;;7.90;75.00;;;;;;5084845;28;20450;-68
2022/03/01 11:50:09;;;;;;;;;;;7.90;74.10;;;;;;5087698;28;20273;-69
2022/03/01 11:52:47;;;;;;;;;;;8.00;74.10;;;;;;5084363;28;19928;-68
2022/03/01 11:55:13;;;;;;;;;;;8.00;74.80;;;;;;5086501;28;19999;-69
2022/03/01 11:57:40;;;;;;;;;;;8.10;74.50;;;;;;5082105;28;20712;-69
2022/03/01 12:00:06;;;;;;;;;;;8.10;74.60;;;;;;5086928;28;19947;-69
2022/03/01 12:02:33;;;;;;;;;;;8.20;74.50;;;;;;5064605;28;19916;-69
2022/03/01 12:04:59;;;;;;;;;;;8.20;74.70;;;;;;5068206;28;19920;-69
2022/03/01 12:07:26;;;;;;;;;;;8.30;74.40;;;;;;5085308;28;19908;-69
2022/03/01 12:09:56;;;;;;;;;;;8.50;74.60;;;;;;5087314;28;19922;-69
2022/03/01 12:12:30;;;;;;;;;;;8.50;73.90;;;;;;5085197;28;19986;-69
2022/03/01 12:14:55;;;;;;;;;;;8.60;74.00;;;;;;5086888;28;19916;-69
2022/03/01 12:17:21;;;;;;;;;;;8.70;73.70;;;;;;5085431;28;19931;-69
2022/03/01 12:19:57;;;;;;;;;;;8.70;73.10;;;;;;5049425;28;20013;-69
2022/03/01 12:22:22;;;;;;;;;;;8.70;73.90;;;;;;5067046;28;20254;-69
2022/03/01 12:24:48;;;;;;;;;;;8.80;74.40;;;;;;5061021;28;19919;-69
2022/03/01 12:27:14;;;;;;;;;;;8.80;74.30;;;;;;5085014;28;19954;-69
2022/03/01 12:29:40;;;;;;;;;;;8.80;73.30;;;;;;5084843;28;20557;-69
2022/03/01 12:32:07;;;;;;;;;;;8.80;73.60;;;;;;5086118;28;19920;-69
2022/03/01 12:34:34;;;;;;;;;;;8.90;73.50;;;;;;5085799;28;19923;-69
2022/03/01 12:37:01;;;;;;;;;;;8.90;73.70;;;;;;5085183;28;19957;-69
2022/03/01 12:39:29;;;;;;;;;;;8.90;74.80;;;;;;5084504;28;20144;-69
2022/03/01 12:41:55;;;;;;;;;;;9.00;73.80;;;;;;5085894;28;19916;-69
2022/03/01 12:44:22;;;;;;;;;;;9.00;73.90;;;;;;5064438;28;19951;-69
2022/03/01 12:46:48;;;;;;;;;;;9.10;74.00;;;;;;5066048;28;19913;-69
2022/03/01 12:49:15;;;;;;;;;;;9.10;74.00;;;;;;5084779;28;20276;-69
2022/03/01 12:51:41;;;;;;;;;;;9.20;73.60;;;;;;5083618;28;19920;-69
2022/03/01 12:54:06;;;;;;;;;;;9.20;74.40;;;;;;5084779;28;19922;-69
2022/03/01 12:56:33;;;;;;;;;;;9.20;74.20;;;;;;5085647;28;19946;-69
2022/03/01 12:59:02;;;;;;;;;;;9.20;74.10;;;;;;5087410;28;20639;-69
2022/03/01 13:01:28;;;;;;;;;;;9.20;74.70;;;;;;5081659;28;19912;-69
2022/03/01 13:03:53;;;;;;;;;;;9.20;74.60;;;;;;5086266;28;20459;-69
2022/03/01 13:06:21;;;;;;;;;;;9.20;72.30;;;;;;5083590;28;19943;-69
2022/03/01 13:08:49;;;;;;;;;;;9.30;74.40;;;;;;5087224;28;19996;-68
2022/03/01 13:11:15;;;;;;;;;;;9.30;74.50;;;;;;5081861;28;19980;-69
2022/03/01 13:13:51;;;;;;;;;;;9.20;72.10;;;;;;5067422;28;19946;-69
2022/03/01 13:16:20;;;;;;;;;;;9.30;74.70;;;;;;5082529;28;19916;-69
2022/03/01 13:18:50;;;;;;;;;;;9.30;75.10;;;;;;5086355;28;19912;-69
2022/03/01 13:21:33;;;;;;;;;;;9.30;75.00;;;;;;5083924;28;19916;-69
2022/03/01 13:24:00;;;;;;;;;;;9.30;75.20;;;;;;5086913;28;19916;-69
2022/03/01 13:26:26;;;;;;;;;;;9.30;74.60;;;;;;5065569;28;19916;-69
2022/03/01 13:28:52;;;;;;;;;;;9.30;74.20;;;;;;5087595;28;19923;-69
2022/03/01 13:31:27;;;;;;;;;;;9.30;75.20;;;;;;5086568;28;19916;-69
2022/03/01 13:33:57;;;;;;;;;;;9.30;75.00;;;;;;5065171;28;19963;-69
2022/03/01 13:36:27;;;;;;;;;;;9.40;75.00;;;;;;5068267;28;19927;-69
2022/03/01 13:39:00;;;;;;;;;;;9.40;75.10;;;;;;5072490;28;20507;-69
2022/03/01 13:41:26;;;;;;;;;;;9.40;75.40;;;;;;5087664;28;19924;-69
2022/03/01 13:43:52;;;;;;;;;;;9.40;74.90;;;;;;5090368;28;19916;-69
2022/03/01 13:46:17;;;;;;;;;;;9.40;75.00;;;;;;5084407;28;20768;-69
2022/03/01 13:48:43;;;;;;;;;;;9.40;75.20;;;;;;5090986;28;19916;-69
2022/03/01 13:51:08;;;;;;;;;;;9.50;75.30;;;;;;5070758;28;19920;-69
2022/03/01 13:53:34;;;;;;;;;;;9.50;75.30;;;;;;5085568;28;19939;-69
2022/03/01 13:56:01;;;;;;;;;;;9.50;75.20;;;;;;5087701;28;19940;-69
2022/03/01 13:58:27;;;;;;;;;;;9.50;75.30;;;;;;5087562;28;19927;-69
2022/03/01 14:00:54;;;;;;;;;;;9.60;75.20;;;;;;5085752;28;19916;-69
2022/03/01 14:03:27;;;;;;;;;;;9.60;75.40;;;;;;5068974;28;19912;-69
2022/03/01 14:06:01;;;;;;;;;;;9.60;75.10;;;;;;5070289;28;19969;-69
2022/03/01 14:08:27;;;;;;;;;;;9.60;75.30;;;;;;5087192;28;20553;-69
2022/03/01 14:10:54;;;;;;;;;;;9.60;75.50;;;;;;5071338;28;19931;-69
2022/03/01 14:13:22;;;;;;;;;;;9.60;74.30;;;;;;5066165;28;19916;-69
2022/03/01 14:15:50;;;;;;;;;;;9.60;75.40;;;;;;5070260;28;19916;-69
2022/03/01 14:18:16;;;;;;;;;;;9.60;76.10;;;;;;5067620;28;19944;-69
2022/03/01 14:20:42;;;;;;;;;;;9.60;73.70;;;;;;5084282;28;20339;-69
2022/03/01 14:23:08;;;;;;;;;;;9.60;75.80;;;;;;5087108;28;19916;-69
2022/03/01 14:25:34;;;;;;;;;;;9.60;74.40;;;;;;5087163;28;19912;-69